Archival Weather

Tokyo Intl

Tokyo, Japan (RJTT)

Report from: Friday, September 22, 2023 12:30 AM JST
Current time: Sunday, February 25, 2024 1:59 AM JST

Current weather – Weather history – Daily summaries
Weather forecast

Present weatherLight rain showers, rain showers
Temperature29.0°C (84.2°F)
Heat index33.7°C (92.7°F)
Dew point24.0°C (75.2°F)
Winds 16 kts (8.2 m/s, 18.4 mph) Southwest (220°)
Visibility6.2 mi. (10 km)
Clouds Few clouds 2,000 ft. (610 m)
Ceiling: Broken clouds 14,000 ft. (4,267 m)
Altimeter29.71 in.Hg (1006 mB)
Relative humidity75 %
Density altitude2,251 ft. (686 m)
Flight conditions Visual Meteorological Conditions
Raw dataRJTT 211530Z 22016KT 9999 -SHRA FEW020 BKN140 29/24 Q1006 TEMPO 4000 SHRA BR
An error has occurred. This application may no longer respond until reloaded. Reload 🗙